createdAt,value
2019-01-21T00:00:05.903Z,-3.3
2019-01-21T00:01:06.419Z,-3.3
2019-01-21T00:02:06.314Z,-3.3
2019-01-21T00:03:06.208Z,-3.3
2019-01-21T00:11:12.442Z,-2.7
2019-01-21T00:12:12.327Z,-2.8
2019-01-21T00:13:12.222Z,-2.8
2019-01-21T00:14:12.135Z,-2.8
2019-01-21T00:15:12.042Z,-2.9
2019-01-21T00:16:11.925Z,-2.9
2019-01-21T00:17:11.826Z,-3
2019-01-21T00:18:11.715Z,-3
2019-01-21T00:19:11.654Z,-3.1
2019-01-21T00:20:11.538Z,-3.1
2019-01-21T00:21:11.886Z,-3.1
2019-01-21T00:22:11.780Z,-3.1
2019-01-21T00:23:11.672Z,-3.2
2019-01-21T00:24:11.606Z,-3.2
2019-01-21T00:25:11.500Z,-3.2
2019-01-21T00:26:11.378Z,-3.3
2019-01-21T00:27:11.271Z,-3.3
2019-01-21T00:28:11.165Z,-3.3
2019-01-21T00:29:11.033Z,-3.3
2019-01-21T00:30:10.929Z,-3.4
2019-01-21T00:31:11.261Z,-3.4
2019-01-21T00:32:11.134Z,-3.4
2019-01-21T00:33:11.019Z,-3.5
2019-01-21T00:34:10.901Z,-3.5
2019-01-21T00:35:10.785Z,-3.5
2019-01-21T00:36:10.701Z,-3.6
2019-01-21T00:37:10.589Z,-3.6
2019-01-21T00:38:10.536Z,-3.6
2019-01-21T00:39:10.431Z,-3.7
2019-01-21T00:40:10.305Z,-3.7
2019-01-21T00:41:10.633Z,-3.7
2019-01-21T00:42:10.523Z,-3.7
2019-01-21T00:43:10.408Z,-3.7
2019-01-21T00:44:10.300Z,-3.8
2019-01-21T00:45:10.184Z,-3.8
2019-01-21T00:46:10.092Z,-3.7
2019-01-21T00:47:09.995Z,-3.7
2019-01-21T00:48:09.887Z,-3.7
2019-01-21T00:49:09.775Z,-3.7
2019-01-21T00:50:09.701Z,-3.7
2019-01-21T00:51:10.025Z,-3.8
2019-01-21T00:52:09.929Z,-3.8
2019-01-21T00:53:09.815Z,-3.8
2019-01-21T00:54:09.703Z,-3.9
2019-01-21T00:55:09.652Z,-3.9
2019-01-21T00:56:09.534Z,-3.9
2019-01-21T00:57:09.455Z,-3.9
2019-01-21T00:58:09.325Z,-4
2019-01-21T00:59:09.224Z,-4
2019-01-21T01:00:09.102Z,-4
2019-01-21T01:01:09.479Z,-4
2019-01-21T01:02:09.377Z,-4.1
2019-01-21T01:03:09.279Z,-4.1
2019-01-21T01:04:09.157Z,-4.1
2019-01-21T01:05:09.048Z,-4
2019-01-21T01:06:08.928Z,-4.1
2019-01-21T01:07:08.807Z,-4.1
2019-01-21T01:08:08.721Z,-4.1
2019-01-21T01:09:08.609Z,-4.1
2019-01-21T01:10:08.509Z,-4.2
2019-01-21T01:11:08.801Z,-4.2
2019-01-21T01:12:08.677Z,-4.3
2019-01-21T01:13:08.547Z,-4.3
2019-01-21T01:14:08.461Z,-4.3
2019-01-21T01:15:08.332Z,-4.3
2019-01-21T01:16:08.222Z,-4.3
2019-01-21T01:17:08.145Z,-4.3
2019-01-21T01:18:08.026Z,-4.3
2019-01-21T01:19:07.937Z,-4.4
2019-01-21T01:20:07.825Z,-4.4
2019-01-21T01:21:08.119Z,-4.4
2019-01-21T01:22:08.022Z,-4.5
2019-01-21T01:23:07.912Z,-4.5
2019-01-21T01:24:07.812Z,-4.5
2019-01-21T01:25:07.717Z,-4.5
2019-01-21T01:26:07.680Z,-4.5
2019-01-21T01:27:07.580Z,-4.5
2019-01-21T01:28:07.501Z,-4.6
2019-01-21T01:29:07.379Z,-4.6
2019-01-21T01:30:07.271Z,-4.6
2019-01-21T01:31:07.581Z,-4.7
2019-01-21T01:32:07.467Z,-4.7
2019-01-21T01:33:07.369Z,-4.7
2019-01-21T01:34:07.251Z,-4.7
2019-01-21T01:35:07.129Z,-4.7
2019-01-21T01:36:07.029Z,-4.7
2019-01-21T01:37:06.917Z,-4.7
2019-01-21T01:38:06.802Z,-4.7
2019-01-21T01:39:06.682Z,-4.7
2019-01-21T01:40:06.563Z,-4.8
2019-01-21T01:41:06.873Z,-4.8
2019-01-21T01:42:06.750Z,-4.7
2019-01-21T01:43:07.303Z,-4.7
2019-01-21T01:44:08.141Z,-4.7
2019-01-21T01:45:08.053Z,-4.7
2019-01-21T01:46:07.985Z,-4.8
2019-01-21T01:47:07.929Z,-4.8
2019-01-21T01:48:07.846Z,-4.8
2019-01-21T01:49:07.791Z,-4.8
2019-01-21T01:50:07.723Z,-4.8
2019-01-21T01:51:08.121Z,-4.9
2019-01-21T01:52:08.605Z,-4.8
2019-01-21T01:53:09.647Z,-4.9
2019-01-21T01:54:09.577Z,-4.9
2019-01-21T01:55:09.494Z,-4.9
2019-01-21T01:56:09.429Z,-4.8
2019-01-21T01:57:09.347Z,-4.8
2019-01-21T01:58:09.256Z,-4.8
2019-01-21T01:59:09.173Z,-4.8
2019-01-21T02:00:09.378Z,-4.8
2019-01-21T02:01:09.767Z,-4.8
2019-01-21T02:02:09.683Z,-4.7
2019-01-21T02:03:09.605Z,-4.7
2019-01-21T02:04:09.532Z,-4.8
2019-01-21T02:05:09.459Z,-4.7
2019-01-21T02:06:09.399Z,-4.7
2019-01-21T02:07:09.313Z,-4.7
2019-01-21T02:08:09.233Z,-4.7
2019-01-21T02:09:09.867Z,-4.8
2019-01-21T02:10:11.062Z,-4.8
2019-01-21T02:11:11.434Z,-4.8
2019-01-21T02:12:11.367Z,-4.8
2019-01-21T02:13:11.315Z,-4.8
2019-01-21T02:14:11.233Z,-4.8
2019-01-21T02:15:11.167Z,-4.9
2019-01-21T02:16:11.099Z,-4.9
2019-01-21T02:17:11.080Z,-4.9
2019-01-21T02:18:11.014Z,-4.9
2019-01-21T02:19:11.522Z,-4.9
2019-01-21T02:20:11.433Z,-5
2019-01-21T02:21:11.795Z,-5
2019-01-21T02:22:11.759Z,-5
2019-01-21T02:31:12.093Z,-4.4
2019-01-21T02:32:12.042Z,-4.4
2019-01-21T02:33:12.002Z,-4.5
2019-01-21T02:34:11.912Z,-4.5
2019-01-21T02:35:12.478Z,-4.5
2019-01-21T02:36:13.524Z,-4.5
2019-01-21T02:37:13.442Z,-4.6
2019-01-21T02:38:13.402Z,-4.6
2019-01-21T02:39:13.342Z,-4.6
2019-01-21T02:40:13.278Z,-4.6
2019-01-21T02:41:13.629Z,-4.6
2019-01-21T02:42:13.562Z,-4.6
2019-01-21T02:43:15.254Z,-4.6
2019-01-21T02:44:15.761Z,-4.6
2019-01-21T02:51:15.949Z,-4.2
2019-01-21T02:52:15.899Z,-4.2
2019-01-21T02:53:15.816Z,-4.3
2019-01-21T02:54:15.758Z,-4.3
2019-01-21T02:55:15.691Z,-4.4
2019-01-21T02:56:15.614Z,-4.4
2019-01-21T02:57:15.564Z,-4.5
2019-01-21T02:58:15.564Z,-4.4
2019-01-21T02:59:15.511Z,-4.5
2019-01-21T03:00:15.417Z,-4.6
2019-01-21T03:01:16.217Z,-4.6
2019-01-21T03:02:17.253Z,-4.7
2019-01-21T03:03:17.170Z,-4.7
2019-01-21T03:04:17.085Z,-4.7
2019-01-21T03:05:17.003Z,-4.8
2019-01-21T03:06:16.967Z,-4.8
2019-01-21T03:07:16.898Z,-4.8
2019-01-21T03:08:16.819Z,-4.8
2019-01-21T03:09:16.724Z,-4.8
2019-01-21T03:10:16.935Z,-4.9
2019-01-21T03:11:18.740Z,-4.9
2019-01-21T03:12:18.666Z,-4.9
2019-01-21T03:13:18.594Z,-4.9
2019-01-21T03:14:18.516Z,-5
2019-01-21T03:15:18.438Z,-5
2019-01-21T03:16:18.374Z,-5.1
2019-01-21T03:17:18.344Z,-5.1
2019-01-21T03:18:18.636Z,-5.1
2019-01-21T03:19:18.554Z,-5.2
2019-01-21T03:20:18.472Z,-5.2
2019-01-21T03:21:18.824Z,-5.3
2019-01-21T03:22:18.766Z,-5.3
2019-01-21T03:23:18.692Z,-5.2
2019-01-21T03:24:18.616Z,-5.2
2019-01-21T03:25:18.602Z,-5.2
2019-01-21T03:26:18.576Z,-5.2
2019-01-21T03:27:18.989Z,-5.3
2019-01-21T03:28:19.715Z,-5.3
2019-01-21T03:29:19.673Z,-5.3
2019-01-21T03:30:19.620Z,-5.4
2019-01-21T03:31:20.086Z,-5.4
2019-01-21T03:32:20.022Z,-5.4
2019-01-21T03:33:20.029Z,-5.4
2019-01-21T03:34:19.999Z,-5.4
2019-01-21T03:35:19.988Z,-5.4
2019-01-21T03:36:20.416Z,-5.4
2019-01-21T03:37:21.516Z,-5.4
2019-01-21T03:38:21.456Z,-5.5
2019-01-21T03:39:21.370Z,-5.5
2019-01-21T03:40:21.300Z,-5.5
2019-01-21T03:41:22.918Z,-5.5
2019-01-21T03:42:22.832Z,-5.5
2019-01-21T03:43:22.771Z,-5.5
2019-01-21T03:44:22.854Z,-5.5
2019-01-21T03:45:22.791Z,-5.5
2019-01-21T03:46:22.729Z,-5.5
2019-01-21T03:47:22.660Z,-5.5
2019-01-21T03:48:22.571Z,-5.5
2019-01-21T03:49:22.566Z,-5.5
2019-01-21T03:50:22.499Z,-5.5
2019-01-21T03:51:22.921Z,-5.5
2019-01-21T03:52:22.897Z,-5.5
2019-01-21T03:53:23.492Z,-5.4
2019-01-21T03:54:24.439Z,-5.4
2019-01-21T03:55:24.336Z,-5.4
2019-01-21T03:56:24.257Z,-5.4
2019-01-21T03:57:24.182Z,-5.4
2019-01-21T03:58:24.098Z,-5.4
2019-01-21T03:59:24.082Z,-5.5
2019-01-21T04:00:24.010Z,-5.5
2019-01-21T04:01:24.429Z,-5.5
2019-01-21T04:02:24.652Z,-5.5
2019-01-21T04:03:25.939Z,-5.5
2019-01-21T04:04:25.854Z,-5.5
2019-01-21T04:05:25.829Z,-5.5
2019-01-21T04:06:25.751Z,-5.5
2019-01-21T04:07:25.881Z,-5.5
2019-01-21T04:08:25.802Z,-5.5
2019-01-21T04:09:25.711Z,-5.5
2019-01-21T04:10:26.048Z,-5.5
2019-01-21T04:11:26.596Z,-5.5
2019-01-21T04:12:26.538Z,-5.5
2019-01-21T04:13:26.481Z,-5.4
2019-01-21T04:14:26.401Z,-5.5
2019-01-21T04:15:26.358Z,-5.4
2019-01-21T04:16:26.298Z,-5.4
2019-01-21T04:17:26.370Z,-5.4
2019-01-21T04:18:26.318Z,-5.4
2019-01-21T04:19:26.850Z,-5.4
2019-01-21T04:20:28.050Z,-5.4
2019-01-21T04:21:28.419Z,-5.3
2019-01-21T04:22:28.359Z,-5.3
2019-01-21T04:23:28.307Z,-5.3
2019-01-21T04:24:28.255Z,-5.3
2019-01-21T04:25:28.168Z,-5.3
2019-01-21T04:26:28.087Z,-5.3
2019-01-21T04:27:27.983Z,-5.3
2019-01-21T04:28:27.928Z,-5.3
2019-01-21T04:29:27.855Z,-5.3
2019-01-21T04:30:27.777Z,-5.2
2019-01-21T04:31:28.175Z,-5.2
2019-01-21T04:41:28.449Z,-4.5
2019-01-21T04:42:28.390Z,-4.5
2019-01-21T04:43:28.333Z,-4.4
2019-01-21T04:44:28.247Z,-4.5
2019-01-21T04:45:28.169Z,-4.5
2019-01-21T04:46:28.131Z,-4.5
2019-01-21T04:47:28.111Z,-4.5
2019-01-21T04:48:33.717Z,-4.5
2019-01-21T04:49:33.639Z,-4.6
2019-01-21T04:50:33.546Z,-4.6
2019-01-21T04:51:33.968Z,-4.6
2019-01-21T04:52:33.903Z,-4.7
2019-01-21T04:53:33.841Z,-4.7
2019-01-21T04:54:34.487Z,-4.7
2019-01-21T04:55:35.565Z,-4.7
2019-01-21T04:56:35.529Z,-4.8
2019-01-21T04:57:35.493Z,-4.8
2019-01-21T04:58:35.435Z,-4.8
2019-01-21T04:59:35.362Z,-4.8
2019-01-21T05:00:35.297Z,-4.8
2019-01-21T05:01:35.661Z,-4.8
2019-01-21T05:02:35.991Z,-4.8
2019-01-21T05:11:34.701Z,-4.1
2019-01-21T05:12:34.635Z,-4.2
2019-01-21T05:13:34.566Z,-4.2
2019-01-21T05:14:34.512Z,-4.2
2019-01-21T05:15:34.446Z,-4.2
2019-01-21T05:16:34.360Z,-4.3
2019-01-21T05:17:34.291Z,-4.3
2019-01-21T05:18:41.962Z,-4.4
2019-01-21T05:19:41.927Z,-4.4
2019-01-21T05:20:42.320Z,-4.4
2019-01-21T05:21:44.313Z,-4.5
2019-01-21T05:22:44.247Z,-4.5
2019-01-21T05:23:44.180Z,-4.5
2019-01-21T05:24:44.125Z,-4.5
2019-01-21T05:25:44.081Z,-4.6
2019-01-21T05:26:44.026Z,-4.6
2019-01-21T05:27:43.956Z,-4.6
2019-01-21T05:28:44.274Z,-4.6
2019-01-21T05:29:44.198Z,-4.6
2019-01-21T05:30:44.146Z,-4.6
2019-01-21T05:31:44.546Z,-4.7
2019-01-21T05:32:44.507Z,-4.7
2019-01-21T05:33:44.459Z,-4.6
2019-01-21T05:41:44.015Z,-4.1
2019-01-21T05:42:43.915Z,-4.2
2019-01-21T05:43:43.818Z,-4.2
2019-01-21T05:44:43.714Z,-4.2
2019-01-21T05:45:43.603Z,-4.2
2019-01-21T05:46:43.513Z,-4.2
2019-01-21T05:47:43.400Z,-4.3
2019-01-21T05:48:49.753Z,-4.3
2019-01-21T05:49:49.683Z,-4.3
2019-01-21T05:50:49.565Z,-4.4
2019-01-21T05:51:49.917Z,-4.4
2019-01-21T05:52:49.821Z,-4.4
2019-01-21T06:01:48.131Z,-3.9
2019-01-21T06:02:48.040Z,-4
2019-01-21T06:03:47.943Z,-4
2019-01-21T06:04:47.827Z,-4
2019-01-21T06:05:47.709Z,-4.1
2019-01-21T06:06:47.595Z,-4.1
2019-01-21T06:07:47.522Z,-4.2
2019-01-21T06:08:47.420Z,-4.2
2019-01-21T06:09:47.327Z,-4.2
2019-01-21T06:10:47.222Z,-4.3
2019-01-21T06:11:47.521Z,-4.4
2019-01-21T06:12:47.397Z,-4.4
2019-01-21T06:13:47.323Z,-4.4
2019-01-21T06:14:47.233Z,-4.4
2019-01-21T06:15:47.119Z,-4.5
2019-01-21T06:16:47.008Z,-4.4
2019-01-21T06:17:46.886Z,-4.5
2019-01-21T06:18:46.781Z,-4.5
2019-01-21T06:19:46.709Z,-4.6
2019-01-21T06:20:46.606Z,-4.6
2019-01-21T06:21:46.936Z,-4.6
2019-01-21T06:22:46.846Z,-4.6
2019-01-21T06:23:46.746Z,-4.5
2019-01-21T06:31:45.187Z,-4
2019-01-21T06:32:45.051Z,-4
2019-01-21T06:33:44.929Z,-4
2019-01-21T06:34:44.819Z,-4
2019-01-21T06:35:44.743Z,-4.1
2019-01-21T06:36:44.679Z,-4.1
2019-01-21T06:37:44.567Z,-4.2
2019-01-21T06:38:44.443Z,-4.2
2019-01-21T06:39:44.405Z,-4.3
2019-01-21T06:40:44.281Z,-4.2
2019-01-21T06:41:44.613Z,-4.2
2019-01-21T06:42:44.493Z,-4.3
2019-01-21T06:43:44.379Z,-4.3
2019-01-21T06:44:44.277Z,-4.2
2019-01-21T06:45:44.183Z,-4.2
2019-01-21T06:46:44.087Z,-4.2
2019-01-21T06:47:43.981Z,-4.3
2019-01-21T06:48:43.867Z,-4.3
2019-01-21T06:49:43.763Z,-4.3
2019-01-21T06:50:43.658Z,-4.3
2019-01-21T06:51:43.981Z,-4.3
2019-01-21T06:52:43.866Z,-4.3
2019-01-21T06:53:43.761Z,-4.4
2019-01-21T06:54:43.647Z,-4.3
2019-01-21T06:55:43.539Z,-4.4
2019-01-21T06:56:48.148Z,-4.4
2019-01-21T06:57:48.025Z,-4.4
2019-01-21T06:58:47.903Z,-4.4
2019-01-21T06:59:47.794Z,-4.4
2019-01-21T07:00:47.655Z,-4.4
2019-01-21T07:01:48.009Z,-4.4
2019-01-21T07:02:47.887Z,-4.4
2019-01-21T07:03:47.765Z,-4.4
2019-01-21T07:04:47.671Z,-4.4
2019-01-21T07:05:47.557Z,-4.4
2019-01-21T07:06:47.461Z,-4.4
2019-01-21T07:07:47.358Z,-4.4
2019-01-21T07:08:47.251Z,-4.5
2019-01-21T07:09:47.117Z,-4.4
2019-01-21T07:10:47.003Z,-4.5
2019-01-21T07:11:47.309Z,-4.5
2019-01-21T07:12:48.467Z,-4.5
2019-01-21T07:13:48.407Z,-4.5
2019-01-21T07:14:48.293Z,-4.5
2019-01-21T07:15:48.181Z,-4.5
2019-01-21T07:16:48.075Z,-4.4
2019-01-21T07:17:48.007Z,-4.4
2019-01-21T07:18:47.892Z,-4.4
2019-01-21T07:19:47.775Z,-4.4
2019-01-21T07:20:47.698Z,-4.4
2019-01-21T07:21:48.020Z,-4.4
2019-01-21T07:22:47.913Z,-4.3
2019-01-21T07:23:47.811Z,-4.3
2019-01-21T07:24:47.718Z,-4.3
2019-01-21T07:25:47.605Z,-4.3
2019-01-21T07:26:47.507Z,-4.3
2019-01-21T07:27:47.393Z,-4.3
2019-01-21T07:28:47.303Z,-4.3
2019-01-21T07:29:47.185Z,-4.3
2019-01-21T07:30:47.054Z,-4.3
2019-01-21T07:31:47.393Z,-4.4
2019-01-21T07:32:47.262Z,-4.4
2019-01-21T07:33:47.161Z,-4.4
2019-01-21T07:34:47.063Z,-4.4
2019-01-21T07:35:46.962Z,-4.4
2019-01-21T07:36:46.861Z,-4.4
2019-01-21T07:37:46.783Z,-4.4
2019-01-21T07:38:46.661Z,-4.4
2019-01-21T07:39:46.567Z,-4.4
2019-01-21T07:40:46.445Z,-4.4
2019-01-21T07:41:46.753Z,-4.4
2019-01-21T07:42:46.642Z,-4.4
2019-01-21T07:43:46.534Z,-4.4
2019-01-21T07:44:46.410Z,-4.4
2019-01-21T07:45:46.336Z,-4.4
2019-01-21T07:46:46.226Z,-4.4
2019-01-21T07:47:46.101Z,-4.3
2019-01-21T07:48:45.992Z,-4.3
2019-01-21T07:49:45.901Z,-4.3
2019-01-21T07:50:45.798Z,-4.3
2019-01-21T07:51:46.162Z,-4.4
2019-01-21T07:52:46.060Z,-4.3
2019-01-21T08:17:40.411Z,-2.9
2019-01-21T08:21:39.927Z,-2.8
2019-01-21T08:22:39.804Z,-2.9
2019-01-21T08:23:39.712Z,-3
2019-01-21T08:24:39.606Z,-3
2019-01-21T08:25:39.487Z,-3
2019-01-21T08:26:39.367Z,-3.1
2019-01-21T08:27:39.265Z,-3.1
2019-01-21T08:28:39.157Z,-3.2
2019-01-21T08:29:39.051Z,-3.2
2019-01-21T08:30:38.945Z,-3.3
2019-01-21T08:31:39.252Z,-3.4
2019-01-21T08:32:39.139Z,-3.4
2019-01-21T08:33:39.086Z,-3.4
2019-01-21T08:34:38.972Z,-3.4
2019-01-21T08:35:38.879Z,-3.4
2019-01-21T08:36:38.806Z,-3.4
2019-01-21T08:37:38.696Z,-3.4
2019-01-21T08:38:38.574Z,-3.4
2019-01-21T08:39:38.490Z,-3.4
2019-01-21T08:40:38.396Z,-3.5
2019-01-21T08:41:38.718Z,-3.5
2019-01-21T08:42:38.614Z,-3.5
2019-01-21T08:43:38.518Z,-3.5
2019-01-21T08:44:38.432Z,-3.5
2019-01-21T08:45:38.313Z,-3.5
2019-01-21T08:46:38.209Z,-3.5
2019-01-21T08:47:38.132Z,-3.5
2019-01-21T08:48:38.010Z,-3.5
2019-01-21T08:49:37.885Z,-3.5
2019-01-21T08:50:37.775Z,-3.5
2019-01-21T08:51:38.084Z,-3.5
2019-01-21T08:52:37.970Z,-3.5
2019-01-21T08:53:37.869Z,-3.5
2019-01-21T08:54:37.797Z,-3.5
2019-01-21T08:55:37.711Z,-3.5
2019-01-21T08:56:37.592Z,-3.5
2019-01-21T08:57:37.475Z,-3.5
2019-01-21T08:58:37.349Z,-3.5
2019-01-21T08:59:37.232Z,-3.5
2019-01-21T09:00:37.164Z,-3.4
2019-01-21T09:01:37.484Z,-3.5
2019-01-21T09:02:37.367Z,-3.4
2019-01-21T09:03:37.252Z,-3.3
2019-01-21T09:11:37.896Z,-2.6
2019-01-21T09:12:37.790Z,-2.6
2019-01-21T09:13:37.683Z,-2.6
2019-01-21T09:14:37.562Z,-2.7
2019-01-21T09:15:37.443Z,-2.7
2019-01-21T09:16:37.354Z,-2.8
2019-01-21T09:17:37.251Z,-2.8
2019-01-21T09:18:37.140Z,-2.8
2019-01-21T09:19:37.958Z,-2.9
2019-01-21T09:20:37.870Z,-2.9
2019-01-21T09:21:38.202Z,-2.9
2019-01-21T09:22:38.090Z,-2.9
2019-01-21T09:23:37.970Z,-3
2019-01-21T09:24:37.878Z,-3
2019-01-21T09:25:37.771Z,-3
2019-01-21T09:26:37.660Z,-3
2019-01-21T09:27:37.603Z,-3
2019-01-21T09:28:37.490Z,-3.1
2019-01-21T09:29:37.373Z,-3.1
2019-01-21T09:30:37.258Z,-3.1
2019-01-21T09:31:37.536Z,-3
2019-01-21T09:32:37.460Z,-3.1
2019-01-21T09:33:37.347Z,-3.1
2019-01-21T09:34:38.602Z,-3
2019-01-21T09:35:38.491Z,-3.1
2019-01-21T09:36:38.386Z,-3
2019-01-21T09:37:38.315Z,-3
2019-01-21T09:38:38.214Z,-3.1
2019-01-21T09:39:38.116Z,-3.1
2019-01-21T09:40:38.009Z,-3.1
2019-01-21T09:41:38.302Z,-3.1
2019-01-21T09:42:38.176Z,-3.1
2019-01-21T09:43:38.083Z,-3.1
2019-01-21T09:44:37.972Z,-3.1
2019-01-21T09:45:37.895Z,-3.1
2019-01-21T09:46:37.768Z,-3
2019-01-21T09:47:37.706Z,-3
2019-01-21T09:48:37.616Z,-3
2019-01-21T09:49:43.520Z,-3
2019-01-21T09:50:43.836Z,-2.9
2019-01-21T09:51:44.140Z,-3
2019-01-21T09:52:44.019Z,-2.9
2019-01-21T09:53:43.944Z,-2.9
2019-01-21T09:54:43.839Z,-2.9
2019-01-21T09:55:44.907Z,-2.9
2019-01-21T09:56:44.875Z,-2.8
2019-01-21T09:57:44.778Z,-2.8
2019-01-21T09:58:44.708Z,-2.8
2019-01-21T09:59:44.590Z,-2.8
2019-01-21T10:00:44.473Z,-2.8
2019-01-21T10:01:44.768Z,-2.8
2019-01-21T10:02:44.664Z,-2.8
2019-01-21T10:03:44.550Z,-2.8
2019-01-21T10:04:44.454Z,-2.8
2019-01-21T10:05:44.333Z,-2.8
2019-01-21T10:06:44.220Z,-2.8
2019-01-21T10:07:44.109Z,-2.8
2019-01-21T10:08:43.998Z,-2.8
2019-01-21T10:09:43.938Z,-2.8
2019-01-21T10:10:43.832Z,-2.8
2019-01-21T10:11:44.137Z,-2.7
2019-01-21T10:12:44.048Z,-2.7
2019-01-21T10:13:43.932Z,-2.7
2019-01-21T10:18:42.800Z,-2.2
2019-01-21T10:21:42.566Z,-2
2019-01-21T10:22:42.435Z,-1.9
2019-01-21T10:23:42.322Z,-1.9
2019-01-21T10:24:42.212Z,-2
2019-01-21T10:25:42.150Z,-2
2019-01-21T10:26:42.025Z,-2.1
2019-01-21T10:27:41.910Z,-2
2019-01-21T10:28:42.250Z,-2
2019-01-21T10:29:42.128Z,-2
2019-01-21T10:30:42.036Z,-2.1
2019-01-21T10:31:42.339Z,-2.1
2019-01-21T10:32:42.224Z,-2
2019-01-21T10:33:42.096Z,-2.1
2019-01-21T10:34:41.960Z,-2.1
2019-01-21T10:35:41.870Z,-2.1
2019-01-21T10:36:41.770Z,-2.1
2019-01-21T10:37:41.655Z,-2.1
2019-01-21T10:38:41.544Z,-2.1
2019-01-21T10:39:41.447Z,-2.1
2019-01-21T10:40:41.336Z,-2.3
2019-01-21T10:41:41.654Z,-2.3
2019-01-21T10:42:41.570Z,-2.3
2019-01-21T10:43:41.446Z,-2.2
2019-01-21T10:44:41.350Z,-2.2
2019-01-21T10:45:41.236Z,-2.2
2019-01-21T10:46:41.143Z,-2.3
2019-01-21T10:47:41.032Z,-2.3
2019-01-21T10:48:40.923Z,-2.3
2019-01-21T10:49:40.828Z,-2.3
2019-01-21T10:50:40.727Z,-2.3
2019-01-21T10:51:41.068Z,-2.3
2019-01-21T10:52:40.951Z,-2.3
2019-01-21T10:53:40.856Z,-2.2
2019-01-21T10:54:40.741Z,-2.3
2019-01-21T10:55:40.611Z,-2.3
2019-01-21T10:56:40.506Z,-2.4
2019-01-21T10:57:40.396Z,-2.4
2019-01-21T10:58:40.303Z,-2.3
2019-01-21T10:59:40.201Z,-2.3
2019-01-21T11:00:40.118Z,-2.3
2019-01-21T11:01:40.456Z,-2.3
2019-01-21T11:02:40.332Z,-2.3
2019-01-21T11:03:40.208Z,-2.2
2019-01-21T11:04:40.094Z,-2.2
2019-01-21T11:05:39.996Z,-2.2
2019-01-21T11:06:39.898Z,-2.2
2019-01-21T11:07:39.791Z,-2.2
2019-01-21T11:08:39.668Z,-2.2
2019-01-21T11:09:39.562Z,-2.2
2019-01-21T11:10:39.470Z,-2.2
2019-01-21T11:11:39.795Z,-2.2
2019-01-21T11:12:39.684Z,-2.2
2019-01-21T11:13:39.576Z,-2.2
2019-01-21T11:14:39.460Z,-2.2
2019-01-21T11:15:39.354Z,-2.2
2019-01-21T11:16:39.230Z,-2.2
2019-01-21T11:17:39.150Z,-2.1
2019-01-21T11:18:39.080Z,-2.1
2019-01-21T11:19:38.966Z,-2.1
2019-01-21T11:20:38.849Z,-2.1
2019-01-21T11:21:39.132Z,-2
2019-01-21T11:22:39.019Z,-2
2019-01-21T11:23:38.939Z,-2.1
2019-01-21T11:24:38.825Z,-2.1
2019-01-21T11:25:38.709Z,-2
2019-01-21T11:26:38.634Z,-2
2019-01-21T11:27:38.516Z,-2
2019-01-21T11:28:38.439Z,-2
2019-01-21T11:29:38.334Z,-2
2019-01-21T11:30:38.211Z,-2
2019-01-21T11:31:38.526Z,-2
2019-01-21T11:32:38.397Z,-2
2019-01-21T11:33:38.306Z,-2
2019-01-21T11:34:38.209Z,-1.9
2019-01-21T11:35:38.111Z,-1.9
2019-01-21T11:36:37.985Z,-1.8
2019-01-21T11:37:37.857Z,-1.8
2019-01-21T11:38:37.747Z,-1.8
2019-01-21T11:39:37.638Z,-1.8
2019-01-21T11:40:37.531Z,-1.8
2019-01-21T11:41:37.856Z,-1.9
2019-01-21T11:42:37.802Z,-1.8
2019-01-21T11:43:37.709Z,-1.8
2019-01-21T11:47:36.781Z,-1.5
2019-01-21T11:51:36.353Z,-1.2
2019-01-21T11:52:36.297Z,-1.2
2019-01-21T11:53:36.195Z,-1.2
2019-01-21T11:54:36.104Z,-1.2
2019-01-21T11:55:36.002Z,-1.2
2019-01-21T11:56:35.905Z,-1.2
2019-01-21T11:57:35.781Z,-1.3
2019-01-21T11:58:35.653Z,-1.3
2019-01-21T11:59:35.543Z,-1.3
2019-01-21T12:00:35.465Z,-1.4
2019-01-21T12:01:35.782Z,-1.4
2019-01-21T12:02:35.659Z,-1.4
2019-01-21T12:03:35.563Z,-1.3
2019-01-21T12:04:35.448Z,-1.3
2019-01-21T12:05:35.359Z,-1.3
2019-01-21T12:06:35.248Z,-1.3
2019-01-21T12:07:35.151Z,-1.4
2019-01-21T12:08:35.038Z,-1.4
2019-01-21T12:09:34.921Z,-1.3
2019-01-21T12:10:34.810Z,-1.3
2019-01-21T12:11:36.005Z,-1.3
2019-01-21T12:12:35.889Z,-1.3
2019-01-21T12:13:35.761Z,-1.4
2019-01-21T12:14:35.662Z,-1.4
2019-01-21T12:15:35.553Z,-1.4
2019-01-21T12:16:35.461Z,-1.4
2019-01-21T12:17:35.343Z,-1.4
2019-01-21T12:18:35.222Z,-1.4
2019-01-21T12:19:35.133Z,-1.5
2019-01-21T12:20:35.019Z,-1.5
2019-01-21T12:21:35.361Z,-1.4
2019-01-21T12:22:35.254Z,-1.4
2019-01-21T12:23:35.144Z,-1.4
2019-01-21T12:24:35.057Z,-1.4
2019-01-21T12:25:34.955Z,-1.3
2019-01-21T12:26:34.860Z,-1.4
2019-01-21T12:27:34.767Z,-1.3
2019-01-21T12:28:34.647Z,-1.3
2019-01-21T12:29:34.531Z,-1.4
2019-01-21T12:30:34.419Z,-1.4
2019-01-21T12:31:34.751Z,-1.4
2019-01-21T12:32:34.676Z,-1.4
2019-01-21T12:33:34.563Z,-1.3
2019-01-21T12:34:34.452Z,-1.3
2019-01-21T12:35:34.359Z,-1.3
2019-01-21T12:36:34.276Z,-1.3
2019-01-21T12:37:34.156Z,-1.3
2019-01-21T12:38:34.076Z,-1.2
2019-01-21T12:39:33.956Z,-1.2
2019-01-21T12:40:33.881Z,-1.2
2019-01-21T12:41:34.237Z,-1.2
2019-01-21T12:42:34.115Z,-1.3
2019-01-21T12:43:34.003Z,-1.2
2019-01-21T12:44:33.903Z,-1.2
2019-01-21T12:45:33.781Z,-1.1
2019-01-21T12:46:33.735Z,-1
2019-01-21T12:47:33.629Z,-0.9
2019-01-21T12:48:33.507Z,-0.9
2019-01-21T12:50:33.133Z,-0.8
2019-01-21T12:51:33.425Z,-0.8
2019-01-21T12:52:33.331Z,-0.7
2019-01-21T12:53:33.227Z,-0.7
2019-01-21T12:54:33.125Z,-0.8
2019-01-21T12:55:33.019Z,-0.8
2019-01-21T12:56:32.893Z,-0.8
2019-01-21T12:57:32.770Z,-0.8
2019-01-21T12:58:32.663Z,-0.8
2019-01-21T12:59:32.551Z,-0.8
2019-01-21T13:00:32.461Z,-0.9
2019-01-21T13:01:32.764Z,-0.9
2019-01-21T13:02:32.643Z,-1
2019-01-21T13:03:32.524Z,-1
2019-01-21T13:04:32.404Z,-1
2019-01-21T13:05:32.301Z,-1
2019-01-21T13:06:32.207Z,-1
2019-01-21T13:07:32.105Z,-1
2019-01-21T13:08:31.991Z,-1
2019-01-21T13:09:31.877Z,-1
2019-01-21T13:10:31.753Z,-1
2019-01-21T13:11:32.079Z,-1.1
2019-01-21T13:12:31.995Z,-1
2019-01-21T13:13:31.859Z,-1.1
2019-01-21T13:14:31.747Z,-1.1
2019-01-21T13:15:31.643Z,-1.1
2019-01-21T13:16:31.555Z,-1.1
2019-01-21T13:17:31.439Z,-1.1
2019-01-21T13:18:31.323Z,-1
2019-01-21T13:19:31.222Z,-1.1
2019-01-21T13:20:31.442Z,-1.1
2019-01-21T13:21:35.281Z,-1.1
2019-01-21T13:22:35.171Z,-1.1
2019-01-21T13:23:35.117Z,-1.1
2019-01-21T13:24:35.007Z,-1.1
2019-01-21T13:25:34.895Z,-0.9
2019-01-21T13:26:34.785Z,-0.8
2019-01-21T13:27:34.710Z,-0.8
2019-01-21T13:30:34.059Z,-0.6
2019-01-21T13:31:34.355Z,-0.5
2019-01-21T13:32:34.269Z,-0.5
2019-01-21T13:33:34.163Z,-0.5
2019-01-21T13:34:34.048Z,-0.6
2019-01-21T13:35:33.937Z,-0.6
2019-01-21T13:36:33.857Z,-0.7
2019-01-21T13:37:33.759Z,-0.7
2019-01-21T13:38:33.649Z,-0.8
2019-01-21T13:39:33.540Z,-0.9
2019-01-21T13:40:33.425Z,-0.9
2019-01-21T13:41:34.792Z,-0.9
2019-01-21T13:42:34.713Z,-0.9
2019-01-21T13:43:34.595Z,-0.9
2019-01-21T13:44:34.494Z,-1
2019-01-21T13:45:34.378Z,-0.9
2019-01-21T13:46:34.287Z,-0.9
2019-01-21T13:47:34.188Z,-0.9
2019-01-21T13:48:34.109Z,-0.9
2019-01-21T13:49:34.003Z,-1
2019-01-21T13:50:37.795Z,-1
2019-01-21T13:51:38.143Z,-1
2019-01-21T13:52:38.039Z,-1
2019-01-21T13:53:37.944Z,-1
2019-01-21T13:54:37.833Z,-1.1
2019-01-21T13:55:37.734Z,-1
2019-01-21T13:56:37.621Z,-1.1
2019-01-21T13:57:37.510Z,-1.1
2019-01-21T13:58:37.457Z,-1.1
2019-01-21T13:59:37.359Z,-1.1
2019-01-21T14:00:37.267Z,-1.2
2019-01-21T14:01:37.600Z,-1.1
2019-01-21T14:02:37.491Z,-1.2
2019-01-21T14:03:38.161Z,-1.1
2019-01-21T14:04:38.079Z,-1.2
2019-01-21T14:05:37.989Z,-1.2
2019-01-21T14:06:37.897Z,-1.2
2019-01-21T14:07:37.775Z,-1.2
2019-01-21T14:08:37.645Z,-1.2
2019-01-21T14:09:37.594Z,-1.2
2019-01-21T14:10:37.516Z,-1.2
2019-01-21T14:11:37.851Z,-1.2
2019-01-21T14:12:37.728Z,-1.2
2019-01-21T14:13:37.617Z,-1.3
2019-01-21T14:15:37.238Z,-1.1
2019-01-21T14:17:36.840Z,-0.9
2019-01-21T14:18:36.731Z,-0.8
2019-01-21T14:19:36.625Z,-0.8
2019-01-21T14:21:39.289Z,-0.7
2019-01-21T14:22:39.180Z,-0.7
2019-01-21T14:23:39.070Z,-0.7
2019-01-21T14:24:38.960Z,-0.7
2019-01-21T14:25:38.875Z,-0.7
2019-01-21T14:26:38.783Z,-0.7
2019-01-21T14:27:38.665Z,-0.7
2019-01-21T14:28:38.561Z,-0.8
2019-01-21T14:29:38.460Z,-0.8
2019-01-21T14:30:38.345Z,-0.9
2019-01-21T14:31:38.658Z,-0.9
2019-01-21T14:32:38.552Z,-1
2019-01-21T14:33:38.437Z,-1
2019-01-21T14:34:38.318Z,-1
2019-01-21T14:35:38.205Z,-1
2019-01-21T14:36:38.111Z,-1.1
2019-01-21T14:37:38.002Z,-1.1
2019-01-21T14:38:37.900Z,-1.1
2019-01-21T14:39:37.787Z,-1.1
2019-01-21T14:40:37.687Z,-1.1
2019-01-21T14:41:37.998Z,-1.2
2019-01-21T14:42:37.904Z,-1.2
2019-01-21T14:43:37.822Z,-1.2
2019-01-21T14:44:37.729Z,-1.1
2019-01-21T14:45:37.634Z,-1.2
2019-01-21T14:46:37.560Z,-1.1
2019-01-21T14:47:37.484Z,-1
2019-01-21T14:48:37.497Z,-0.9
2019-01-21T14:49:37.535Z,-1
2019-01-21T14:50:37.456Z,-0.9
2019-01-21T14:51:37.795Z,-0.8
2019-01-21T14:53:37.549Z,-0.8
2019-01-21T14:55:37.311Z,-0.7
2019-01-21T14:56:37.263Z,-0.7
2019-01-21T14:58:37.077Z,-0.7
2019-01-21T14:59:37.067Z,-0.7
2019-01-21T15:00:37.140Z,-0.7
2019-01-21T15:01:37.711Z,-0.7
2019-01-21T15:02:37.766Z,-0.7
2019-01-21T15:03:37.833Z,-0.7
2019-01-21T15:04:37.781Z,-0.7
2019-01-21T15:05:37.870Z,-0.7
2019-01-21T15:06:37.988Z,-0.7
2019-01-21T15:07:38.100Z,-0.8
2019-01-21T15:08:38.242Z,-0.8
2019-01-21T15:09:38.327Z,-0.9
2019-01-21T15:10:38.454Z,-0.9
2019-01-21T15:11:39.458Z,-0.9
2019-01-21T15:12:39.577Z,-0.9
2019-01-21T15:13:39.695Z,-0.9
2019-01-21T15:14:39.822Z,-1
2019-01-21T15:15:41.724Z,-0.9
2019-01-21T15:16:41.893Z,-1
2019-01-21T15:17:41.971Z,-0.9
2019-01-21T15:18:42.223Z,-0.9